Time;durP1;ratioP1;P1;durP2;ratioP2;P2;SDS_P1;SDS_P2;PMS_P1;PMS_P2;Temp;Humidity;BMP_temperature;BMP_pressure;BME280_temperature;BME280_humidity;BME280_pressure;Samples;Min_cycle;Max_cycle;Signal;HPM_P1;HPM_P2
2022/07/04 00:02:03;;;;;;;;;;;;;;;;;;5082467;28;833;-63
2022/07/04 00:04:28;;;;;;;;;;;;;;;;;;5082844;28;1890;-63
2022/07/04 00:06:53;;;;;;;;;;;;;;;;;;5082155;28;1258;-63
2022/07/04 00:09:18;;;;;;;;;;;;;;;;;;5081374;28;1272;-63
2022/07/04 00:11:43;;;;;;;;;;;;;;;;;;5082303;28;794;-63
2022/07/04 00:14:09;;;;;;;;;;;;;;;;;;5081396;28;1385;-63
2022/07/04 00:16:34;;;;;;;;;;;;;;;;;;5082115;28;1157;-63
2022/07/04 00:18:59;;;;;;;;;;;;;;;;;;5082265;28;869;-63
2022/07/04 00:21:24;;;;;;;;;;;;;;;;;;5081680;28;988;-63
2022/07/04 00:23:50;;;;;;;;;;;;;;;;;;5082010;28;861;-63
2022/07/04 00:26:15;;;;;;;;;;;;;;;;;;5082110;28;1898;-63
2022/07/04 00:28:40;;;;;;;;;;;;;;;;;;5081504;28;944;-63
2022/07/04 00:31:05;;;;;;;;;;;;;;;;;;5082417;28;861;-63
2022/07/04 00:33:31;;;;;;;;;;;;;;;;;;5082521;28;731;-63
2022/07/04 00:35:56;;;;;;;;;;;;;;;;;;5082074;28;1008;-64
2022/07/04 00:38:21;;;;;;;;;;;;;;;;;;5081636;28;1227;-63
2022/07/04 00:40:46;;;;;;;;;;;;;;;;;;5082099;28;944;-63
2022/07/04 00:43:11;;;;;;;;;;;;;;;;;;5082064;28;794;-63
2022/07/04 00:45:36;;;;;;;;;;;;;;;;;;5081722;28;1902;-63
2022/07/04 00:48:02;;;;;;;;;;;;;;;;;;5081663;28;1258;-65
2022/07/04 00:50:27;;;;;;;;;;;;;;;;;;5081710;28;928;-64
2022/07/04 00:52:52;;;;;;;;;;;;;;;;;;5082052;28;770;-64
2022/07/04 00:55:18;;;;;;;;;;;;;;;;;;5081689;28;1031;-64
2022/07/04 00:57:44;;;;;;;;;;;;;;;;;;5081464;28;1262;-64
2022/07/04 01:00:09;;;;;;;;;;;;;;;;;;5081740;28;794;-64
2022/07/04 01:02:34;;;;;;;;;;;;;;;;;;5081770;28;1078;-64
2022/07/04 01:05:00;;;;;;;;;;;;;;;;;;5081464;28;1898;-64
2022/07/04 01:07:25;;;;;;;;;;;;;;;;;;5081425;28;1258;-64
2022/07/04 01:09:50;;;;;;;;;;;;;;;;;;5081618;28;1043;-64
2022/07/04 01:12:25;;;;;;;;;;;;;;;;;;5081432;28;802;-64
2022/07/04 01:14:50;;;;;;;;;;;;;;;;;;5081770;28;814;-64
2022/07/04 01:17:16;;;;;;;;;;;;;;;;;;5081107;28;1167;-64
2022/07/04 01:19:41;;;;;;;;;;;;;;;;;;5081469;28;925;-64
2022/07/04 01:22:06;;;;;;;;;;;;;;;;;;5081288;28;855;-63
2022/07/04 01:24:32;;;;;;;;;;;;;;;;;;5081537;28;1910;-63
2022/07/04 01:26:57;;;;;;;;;;;;;;;;;;5080900;28;1281;-64
2022/07/04 01:29:22;;;;;;;;;;;;;;;;;;5081323;28;917;-64
2022/07/04 01:31:47;;;;;;;;;;;;;;;;;;5081175;28;854;-64
2022/07/04 01:34:13;;;;;;;;;;;;;;;;;;5079758;28;897;-64
2022/07/04 01:36:38;;;;;;;;;;;;;;;;;;5080973;28;1287;-64
2022/07/04 01:39:03;;;;;;;;;;;;;;;;;;5081216;28;882;-64
2022/07/04 01:41:32;;;;;;;;;;;;;;;;;;5081198;28;861;-63
2022/07/04 01:43:58;;;;;;;;;;;;;;;;;;5081057;28;862;-64
2022/07/04 01:46:23;;;;;;;;;;;;;;;;;;5080920;28;1976;-64
2022/07/04 01:48:48;;;;;;;;;;;;;;;;;;5080886;28;967;-64
2022/07/04 01:51:13;;;;;;;;;;;;;;;;;;5079807;28;1296;-64
2022/07/04 01:53:38;;;;;;;;;;;;;;;;;;5080935;28;947;-64
2022/07/04 01:56:04;;;;;;;;;;;;;;;;;;5080920;28;1192;-64
2022/07/04 01:58:29;;;;;;;;;;;;;;;;;;5080422;28;1076;-64
2022/07/04 02:03:38;;;;;;;;;;;;;;;;;;5080935;28;675;-64
2022/07/04 02:06:03;;;;;;;;;;;;;;;;;;5080838;28;1942;-64
2022/07/04 02:09:14;;;;;;;;;;;;;;;;;;5080450;28;869;-64
2022/07/04 02:11:13;;;;;;;;;;;;;;;;;;5080744;28;1053;-64
2022/07/04 02:13:38;;;;;;;;;;;;;;;;;;5080911;28;775;-64
2022/07/04 02:16:04;;;;;;;;;;;;;;;;;;5080638;28;1203;-64
2022/07/04 02:18:29;;;;;;;;;;;;;;;;;;5080561;28;845;-63
2022/07/04 02:20:54;;;;;;;;;;;;;;;;;;5080509;28;972;-64
2022/07/04 02:23:19;;;;;;;;;;;;;;;;;;5080701;28;932;-64
2022/07/04 02:25:44;;;;;;;;;;;;;;;;;;5080403;28;1897;-64
2022/07/04 02:28:09;;;;;;;;;;;;;;;;;;5080468;28;1255;-64
2022/07/04 02:30:35;;;;;;;;;;;;;;;;;;5080342;28;805;-64
2022/07/04 02:33:00;;;;;;;;;;;;;;;;;;5080591;28;1055;-64
2022/07/04 02:35:25;;;;;;;;;;;;;;;;;;5080311;28;932;-63
2022/07/04 02:37:50;;;;;;;;;;;;;;;;;;5080212;28;1195;-64
2022/07/04 02:40:15;;;;;;;;;;;;;;;;;;5080239;28;853;-64
2022/07/04 02:42:41;;;;;;;;;;;;;;;;;;5080435;28;803;-64
2022/07/04 02:45:06;;;;;;;;;;;;;;;;;;5081175;28;1902;-64
2022/07/04 02:47:31;;;;;;;;;;;;;;;;;;5083322;28;1290;-64
2022/07/04 02:49:57;;;;;;;;;;;;;;;;;;5083819;28;924;-64
2022/07/04 02:52:22;;;;;;;;;;;;;;;;;;5083439;28;854;-64
2022/07/04 02:54:48;;;;;;;;;;;;;;;;;;5082532;28;881;-64
2022/07/04 02:57:13;;;;;;;;;;;;;;;;;;5083208;28;1210;-64
2022/07/04 02:59:39;;;;;;;;;;;;;;;;;;5083790;28;929;-64
2022/07/04 03:02:04;;;;;;;;;;;;;;;;;;5083463;28;846;-64
2022/07/04 03:04:29;;;;;;;;;;;;;;;;;;5083636;28;1965;-64
2022/07/04 03:06:54;;;;;;;;;;;;;;;;;;5083069;28;1267;-64
2022/07/04 03:09:20;;;;;;;;;;;;;;;;;;5083483;28;861;-64
2022/07/04 03:11:45;;;;;;;;;;;;;;;;;;5083464;28;818;-64
2022/07/04 03:14:10;;;;;;;;;;;;;;;;;;5083309;28;853;-64
2022/07/04 03:16:36;;;;;;;;;;;;;;;;;;5083137;28;1208;-63
2022/07/04 03:19:01;;;;;;;;;;;;;;;;;;5083141;28;850;-64
2022/07/04 03:21:26;;;;;;;;;;;;;;;;;;5083311;28;810;-64
2022/07/04 03:23:57;;;;;;;;;;;;;;;;;;5081789;28;1236;-64
2022/07/04 03:26:26;;;;;;;;;;;;;;;;;;5082850;28;1893;-64
2022/07/04 03:28:52;;;;;;;;;;;;;;;;;;5082992;28;869;-64
2022/07/04 03:31:17;;;;;;;;;;;;;;;;;;5083461;28;802;-63
2022/07/04 03:33:42;;;;;;;;;;;;;;;;;;5082984;28;1001;-64
2022/07/04 03:36:07;;;;;;;;;;;;;;;;;;5081656;28;1175;-64
2022/07/04 03:38:33;;;;;;;;;;;;;;;;;;5082790;28;1127;-63
2022/07/04 03:40:59;;;;;;;;;;;;;;;;;;5082847;28;1030;-63
2022/07/04 03:43:24;;;;;;;;;;;;;;;;;;5083037;28;881;-64
2022/07/04 03:45:49;;;;;;;;;;;;;;;;;;5082685;28;1980;-64
2022/07/04 03:48:14;;;;;;;;;;;;;;;;;;5082704;28;1188;-63
2022/07/04 03:50:40;;;;;;;;;;;;;;;;;;5082602;28;988;-64
2022/07/04 03:53:05;;;;;;;;;;;;;;;;;;5082942;28;885;-64
2022/07/04 03:55:30;;;;;;;;;;;;;;;;;;5082605;28;877;-64
2022/07/04 03:57:56;;;;;;;;;;;;;;;;;;5081239;28;1478;-64
2022/07/04 04:00:21;;;;;;;;;;;;;;;;;;5082568;28;976;-64
2022/07/04 04:02:46;;;;;;;;;;;;;;;;;;5082760;28;893;-64
2022/07/04 04:05:26;;;;;;;;;;;;;;;;;;5082333;28;1962;-62
2022/07/04 04:07:55;;;;;;;;;;;;;;;;;;5082369;28;1287;-62
2022/07/04 04:10:21;;;;;;;;;;;;;;;;;;5082298;28;802;-62
2022/07/04 04:12:46;;;;;;;;;;;;;;;;;;5082680;28;782;-62
2022/07/04 04:15:11;;;;;;;;;;;;;;;;;;5082465;28;976;-62
2022/07/04 04:17:36;;;;;;;;;;;;;;;;;;5081980;28;1191;-64
2022/07/04 04:20:02;;;;;;;;;;;;;;;;;;5081064;28;827;-64
2022/07/04 04:22:28;;;;;;;;;;;;;;;;;;5082600;28;817;-64
2022/07/04 04:24:53;;;;;;;;;;;;;;;;;;5082271;28;1956;-64
2022/07/04 04:27:18;;;;;;;;;;;;;;;;;;5081829;28;1270;-64
2022/07/04 04:29:43;;;;;;;;;;;;;;;;;;5082248;28;806;-64
2022/07/04 04:32:08;;;;;;;;;;;;;;;;;;5080767;28;1134;-63
2022/07/04 04:34:34;;;;;;;;;;;;;;;;;;5082067;28;806;-64
2022/07/04 04:36:59;;;;;;;;;;;;;;;;;;5081886;28;1286;-64
2022/07/04 04:39:24;;;;;;;;;;;;;;;;;;5082096;28;837;-64
2022/07/04 04:41:49;;;;;;;;;;;;;;;;;;5082179;28;890;-64
2022/07/04 04:44:15;;;;;;;;;;;;;;;;;;5081949;28;806;-64
2022/07/04 04:46:40;;;;;;;;;;;;;;;;;;5081604;28;1957;-64
2022/07/04 04:49:05;;;;;;;;;;;;;;;;;;5081783;28;960;-64
2022/07/04 04:51:30;;;;;;;;;;;;;;;;;;5081759;28;1040;-64
2022/07/04 04:53:55;;;;;;;;;;;;;;;;;;5080472;28;890;-63
2022/07/04 04:56:21;;;;;;;;;;;;;;;;;;5081709;28;1251;-64
2022/07/04 04:58:46;;;;;;;;;;;;;;;;;;5081682;28;817;-64
2022/07/04 05:01:11;;;;;;;;;;;;;;;;;;5081926;28;830;-64
2022/07/04 05:03:37;;;;;;;;;;;;;;;;;;5081494;28;889;-64
2022/07/04 05:06:02;;;;;;;;;;;;;;;;;;5081604;28;1893;-64
2022/07/04 05:08:27;;;;;;;;;;;;;;;;;;5081090;28;818;-63
2022/07/04 05:10:52;;;;;;;;;;;;;;;;;;5081592;28;846;-64
2022/07/04 05:13:18;;;;;;;;;;;;;;;;;;5081737;28;980;-64
2022/07/04 05:15:43;;;;;;;;;;;;;;;;;;5081532;28;1060;-63
2022/07/04 05:18:08;;;;;;;;;;;;;;;;;;5081201;28;1171;-64
2022/07/04 05:20:33;;;;;;;;;;;;;;;;;;5081213;28;893;-63
2022/07/04 05:22:59;;;;;;;;;;;;;;;;;;5081520;28;854;-63
2022/07/04 05:25:24;;;;;;;;;;;;;;;;;;5081200;28;1957;-64
2022/07/04 05:27:49;;;;;;;;;;;;;;;;;;5081332;28;1172;-64
2022/07/04 05:30:15;;;;;;;;;;;;;;;;;;5081129;28;865;-64
2022/07/04 05:32:40;;;;;;;;;;;;;;;;;;5081433;28;794;-64
2022/07/04 05:35:06;;;;;;;;;;;;;;;;;;5081167;28;826;-63
2022/07/04 05:37:31;;;;;;;;;;;;;;;;;;5080736;28;1247;-63
2022/07/04 05:39:56;;;;;;;;;;;;;;;;;;5081467;28;889;-64
2022/07/04 05:42:22;;;;;;;;;;;;;;;;;;5080854;28;834;-64
2022/07/04 05:44:47;;;;;;;;;;;;;;;;;;5081203;28;1949;-63
2022/07/04 05:47:12;;;;;;;;;;;;;;;;;;5080580;28;1262;-64
2022/07/04 05:49:37;;;;;;;;;;;;;;;;;;5081125;28;802;-63
2022/07/04 05:52:03;;;;;;;;;;;;;;;;;;5080801;28;874;-63
2022/07/04 05:54:28;;;;;;;;;;;;;;;;;;5081130;28;960;-63
2022/07/04 05:56:53;;;;;;;;;;;;;;;;;;5079121;28;1265;-63
2022/07/04 05:59:18;;;;;;;;;;;;;;;;;;5081076;28;1039;-63
2022/07/04 06:01:43;;;;;;;;;;;;;;;;;;5080980;28;1028;-63
2022/07/04 06:04:09;;;;;;;;;;;;;;;;;;5080812;28;782;-63
2022/07/04 06:06:34;;;;;;;;;;;;;;;;;;5080480;28;1943;-63
2022/07/04 06:08:59;;;;;;;;;;;;;;;;;;5080750;28;1051;-63
2022/07/04 06:11:24;;;;;;;;;;;;;;;;;;5080780;28;791;-63
2022/07/04 06:13:50;;;;;;;;;;;;;;;;;;5080976;28;1040;-63
2022/07/04 06:16:15;;;;;;;;;;;;;;;;;;5080602;28;1271;-63
2022/07/04 06:18:41;;;;;;;;;;;;;;;;;;5080511;28;956;-63
2022/07/04 06:21:06;;;;;;;;;;;;;;;;;;5081649;28;866;-63
2022/07/04 06:23:31;;;;;;;;;;;;;;;;;;5084369;28;870;-63
2022/07/04 06:25:57;;;;;;;;;;;;;;;;;;5084207;28;1893;-63
2022/07/04 06:28:22;;;;;;;;;;;;;;;;;;5083733;28;1200;-63
2022/07/04 06:30:47;;;;;;;;;;;;;;;;;;5084166;28;818;-63
2022/07/04 06:33:12;;;;;;;;;;;;;;;;;;5084101;28;814;-63
2022/07/04 06:35:54;;;;;;;;;;;;;;;;;;5084249;28;961;-63
2022/07/04 06:38:20;;;;;;;;;;;;;;;;;;5083814;28;1306;-63
2022/07/04 06:40:46;;;;;;;;;;;;;;;;;;5083711;28;826;-63
2022/07/04 06:43:11;;;;;;;;;;;;;;;;;;5084096;28;802;-63
2022/07/04 06:45:36;;;;;;;;;;;;;;;;;;5083608;28;1902;-63
2022/07/04 06:48:02;;;;;;;;;;;;;;;;;;5083623;28;1208;-63
2022/07/04 06:50:27;;;;;;;;;;;;;;;;;;5083554;28;1039;-63
2022/07/04 06:52:53;;;;;;;;;;;;;;;;;;5082410;28;897;-63
2022/07/04 06:55:18;;;;;;;;;;;;;;;;;;5083735;28;806;-63
2022/07/04 06:57:43;;;;;;;;;;;;;;;;;;5083496;28;1293;-63
2022/07/04 07:00:08;;;;;;;;;;;;;;;;;;5082182;28;1308;-63
2022/07/04 07:02:34;;;;;;;;;;;;;;;;;;5083527;28;1096;-63
2022/07/04 07:05:00;;;;;;;;;;;;;;;;;;5083799;28;1885;-63
2022/07/04 07:07:26;;;;;;;;;;;;;;;;;;5083076;28;1195;-63
2022/07/04 07:09:52;;;;;;;;;;;;;;;;;;5083655;28;913;-63
2022/07/04 07:12:17;;;;;;;;;;;;;;;;;;5083413;28;1004;-63
2022/07/04 07:14:42;;;;;;;;;;;;;;;;;;5083532;28;873;-62
2022/07/04 07:17:07;;;;;;;;;;;;;;;;;;5082968;28;1196;-63
2022/07/04 07:19:33;;;;;;;;;;;;;;;;;;5083398;28;877;-62
2022/07/04 07:21:58;;;;;;;;;;;;;;;;;;5082860;28;826;-63
2022/07/04 07:24:25;;;;;;;;;;;;;;;;;;5083344;28;1007;-63
2022/07/04 07:26:50;;;;;;;;;;;;;;;;;;5082844;28;1901;-63
2022/07/04 07:29:16;;;;;;;;;;;;;;;;;;5083177;28;864;-62
2022/07/04 07:31:41;;;;;;;;;;;;;;;;;;5082637;28;878;-63
2022/07/04 07:34:06;;;;;;;;;;;;;;;;;;5082857;28;988;-63
2022/07/04 07:36:31;;;;;;;;;;;;;;;;;;5082870;28;1220;-63
2022/07/04 07:38:56;;;;;;;;;;;;;;;;;;5082888;28;817;-63
2022/07/04 07:41:22;;;;;;;;;;;;;;;;;;5083043;28;873;-63
2022/07/04 07:43:47;;;;;;;;;;;;;;;;;;5081619;28;1266;-62
2022/07/04 07:46:12;;;;;;;;;;;;;;;;;;5082709;28;1902;-63
2022/07/04 07:48:37;;;;;;;;;;;;;;;;;;5082634;28;893;-63
2022/07/04 07:51:02;;;;;;;;;;;;;;;;;;5083102;28;786;-63
2022/07/04 07:53:28;;;;;;;;;;;;;;;;;;5082718;28;813;-63
2022/07/04 07:55:53;;;;;;;;;;;;;;;;;;5082847;28;865;-63
2022/07/04 07:58:19;;;;;;;;;;;;;;;;;;5082475;28;1156;-63
2022/07/04 08:00:44;;;;;;;;;;;;;;;;;;5082452;28;767;-63
2022/07/04 08:05:54;;;;;;;;;;;;;;;;;;5082351;28;1894;-63
2022/07/04 08:08:22;;;;;;;;;;;;;;;;;;5082382;28;1238;-62
2022/07/04 08:10:47;;;;;;;;;;;;;;;;;;5082461;28;904;-62
2022/07/04 08:13:12;;;;;;;;;;;;;;;;;;5081178;28;1427;-62
2022/07/04 08:15:37;;;;;;;;;;;;;;;;;;5082275;28;889;-62
2022/07/04 08:18:02;;;;;;;;;;;;;;;;;;5082195;28;1191;-63
2022/07/04 08:20:28;;;;;;;;;;;;;;;;;;5082274;28;909;-63
2022/07/04 08:22:53;;;;;;;;;;;;;;;;;;5082341;28;806;-63
2022/07/04 08:25:18;;;;;;;;;;;;;;;;;;5082168;28;1894;-63
2022/07/04 08:27:43;;;;;;;;;;;;;;;;;;5081971;28;1270;-63
2022/07/04 08:30:09;;;;;;;;;;;;;;;;;;5082324;28;885;-63
2022/07/04 08:32:35;;;;;;;;;;;;;;;;;;5082045;28;889;-63
2022/07/04 08:35:00;;;;;;;;;;;;;;;;;;5080723;28;1408;-63
2022/07/04 08:37:26;;;;;;;;;;;;;;;;;;5081657;28;1258;-63
2022/07/04 08:39:51;;;;;;;;;;;;;;;;;;5082233;28;811;-63
2022/07/04 08:42:17;;;;;;;;;;;;;;;;;;5081364;28;1086;-63
2022/07/04 08:44:45;;;;;;;;;;;;;;;;;;5081685;28;1902;-63
2022/07/04 08:47:15;;;;;;;;;;;;;;;;;;5081524;28;1224;-63
2022/07/04 08:49:42;;;;;;;;;;;;;;;;;;5082124;28;917;-63
2022/07/04 08:52:10;;;;;;;;;;;;;;;;;;5081644;28;928;-63
2022/07/04 09:00:05;;;;;;;;;;;;;;;;;;5081887;28;676;-63
2022/07/04 09:02:31;;;;;;;;;;;;;;;;;;5081515;28;988;-63
2022/07/04 09:04:56;;;;;;;;;;;;;;;;;;5081644;28;1910;-63
2022/07/04 09:07:22;;;;;;;;;;;;;;;;;;5081483;28;1192;-63
2022/07/04 09:09:47;;;;;;;;;;;;;;;;;;5081559;28;904;-62
2022/07/04 09:12:13;;;;;;;;;;;;;;;;;;5081883;28;1014;-62
2022/07/04 09:14:39;;;;;;;;;;;;;;;;;;5081498;28;880;-63
2022/07/04 09:17:05;;;;;;;;;;;;;;;;;;5081450;28;1172;-63
2022/07/04 09:19:30;;;;;;;;;;;;;;;;;;5081444;28;841;-63
2022/07/04 09:21:55;;;;;;;;;;;;;;;;;;5081456;28;866;-63
2022/07/04 09:24:41;;;;;;;;;;;;;;;;;;5079909;28;1307;-63
2022/07/04 09:27:06;;;;;;;;;;;;;;;;;;5080996;28;1296;-63
2022/07/04 09:29:31;;;;;;;;;;;;;;;;;;5081165;28;873;-63
2022/07/04 09:31:57;;;;;;;;;;;;;;;;;;5081327;28;890;-63
2022/07/04 09:34:22;;;;;;;;;;;;;;;;;;5080899;28;936;-63
2022/07/04 09:36:51;;;;;;;;;;;;;;;;;;5080994;28;1219;-63
2022/07/04 09:39:19;;;;;;;;;;;;;;;;;;5080036;28;973;-63
2022/07/04 09:41:55;;;;;;;;;;;;;;;;;;5081076;28;833;-63
2022/07/04 09:44:21;;;;;;;;;;;;;;;;;;5081204;28;826;-63
2022/07/04 09:46:46;;;;;;;;;;;;;;;;;;5080590;28;1913;-63
2022/07/04 09:49:11;;;;;;;;;;;;;;;;;;5081147;28;885;-63
2022/07/04 09:51:38;;;;;;;;;;;;;;;;;;5081040;28;1035;-63
2022/07/04 09:54:12;;;;;;;;;;;;;;;;;;5081878;28;873;-63
2022/07/04 09:56:39;;;;;;;;;;;;;;;;;;5084201;28;1152;-63
2022/07/04 09:59:06;;;;;;;;;;;;;;;;;;5084759;28;920;-63
2022/07/04 10:01:31;;;;;;;;;;;;;;;;;;5084321;28;838;-63
2022/07/04 10:03:56;;;;;;;;;;;;;;;;;;5084345;28;870;-63
2022/07/04 10:06:24;;;;;;;;;;;;;;;;;;5084082;28;1965;-63
2022/07/04 10:08:49;;;;;;;;;;;;;;;;;;5084598;28;980;-62
2022/07/04 10:11:15;;;;;;;;;;;;;;;;;;5084338;28;885;-63
2022/07/04 10:13:40;;;;;;;;;;;;;;;;;;5084326;28;940;-63
2022/07/04 10:16:07;;;;;;;;;;;;;;;;;;5084104;28;1195;-63
2022/07/04 10:18:34;;;;;;;;;;;;;;;;;;5083924;28;877;-63
2022/07/04 10:20:59;;;;;;;;;;;;;;;;;;5084300;28;810;-63
2022/07/04 10:23:30;;;;;;;;;;;;;;;;;;5083926;28;992;-63
2022/07/04 10:25:56;;;;;;;;;;;;;;;;;;5084095;28;1961;-63
2022/07/04 10:28:21;;;;;;;;;;;;;;;;;;5083749;28;1306;-62
2022/07/04 10:30:48;;;;;;;;;;;;;;;;;;5084053;28;830;-63
2022/07/04 10:33:14;;;;;;;;;;;;;;;;;;5083824;28;1040;-63
2022/07/04 10:35:46;;;;;;;;;;;;;;;;;;5083984;28;854;-62
2022/07/04 10:38:11;;;;;;;;;;;;;;;;;;5083663;28;1293;-62
2022/07/04 10:40:46;;;;;;;;;;;;;;;;;;5083980;28;814;-63
2022/07/04 10:43:42;;;;;;;;;;;;;;;;;;5083678;28;885;-63
2022/07/04 10:46:13;;;;;;;;;;;;;;;;;;5083778;28;1898;-63
2022/07/04 10:48:53;;;;;;;;;;;;;;;;;;5083658;28;893;-64
2022/07/04 10:51:41;;;;;;;;;;;;;;;;;;5083979;28;874;-63
2022/07/04 10:54:06;;;;;;;;;;;;;;;;;;5083598;28;826;-63
2022/07/04 10:56:51;;;;;;;;;;;;;;;;;;5083667;28;1274;-63
2022/07/04 10:59:17;;;;;;;;;;;;;;;;;;5083700;28;861;-63
2022/07/04 11:01:46;;;;;;;;;;;;;;;;;;5084137;28;865;-63
2022/07/04 11:04:12;;;;;;;;;;;;;;;;;;5083564;28;935;-63
2022/07/04 11:06:40;;;;;;;;;;;;;;;;;;5082342;28;1969;-63
2022/07/04 11:09:24;;;;;;;;;;;;;;;;;;5083632;28;873;-63
2022/07/04 11:11:49;;;;;;;;;;;;;;;;;;5083517;28;814;-64
2022/07/04 11:14:30;;;;;;;;;;;;;;;;;;5083461;28;857;-63
2022/07/04 11:16:55;;;;;;;;;;;;;;;;;;5082925;28;1186;-64
2022/07/04 11:19:21;;;;;;;;;;;;;;;;;;5083431;28;794;-64
2022/07/04 11:21:46;;;;;;;;;;;;;;;;;;5083034;28;862;-64
2022/07/04 11:24:12;;;;;;;;;;;;;;;;;;5083304;28;889;-63
2022/07/04 11:26:37;;;;;;;;;;;;;;;;;;5082800;28;1913;-63
2022/07/04 11:29:03;;;;;;;;;;;;;;;;;;5083312;28;837;-64
2022/07/04 11:31:34;;;;;;;;;;;;;;;;;;5083025;28;785;-63
2022/07/04 11:34:00;;;;;;;;;;;;;;;;;;5083052;28;890;-63
2022/07/04 11:36:25;;;;;;;;;;;;;;;;;;5082893;28;1216;-64
2022/07/04 11:38:53;;;;;;;;;;;;;;;;;;5083230;28;873;-63
2022/07/04 11:47:15;;;;;;;;;;;;;;;;;;5082492;28;1898;-63
2022/07/04 11:49:41;;;;;;;;;;;;;;;;;;5083048;28;810;-63
2022/07/04 11:52:07;;;;;;;;;;;;;;;;;;5082927;28;849;-63
2022/07/04 11:54:33;;;;;;;;;;;;;;;;;;5082740;28;877;-63
2022/07/04 11:57:15;;;;;;;;;;;;;;;;;;5082718;28;1180;-63
2022/07/04 11:59:40;;;;;;;;;;;;;;;;;;5083000;28;829;-63
2022/07/04 12:02:10;;;;;;;;;;;;;;;;;;5082815;28;865;-63
2022/07/04 12:04:38;;;;;;;;;;;;;;;;;;5082383;28;822;-63
2022/07/04 12:07:08;;;;;;;;;;;;;;;;;;5082321;28;1893;-63
2022/07/04 12:09:33;;;;;;;;;;;;;;;;;;5082559;28;841;-63
2022/07/04 12:11:59;;;;;;;;;;;;;;;;;;5082590;28;870;-63
2022/07/04 12:14:25;;;;;;;;;;;;;;;;;;5082620;28;795;-63
2022/07/04 12:17:08;;;;;;;;;;;;;;;;;;5081839;28;1290;-63
2022/07/04 12:19:33;;;;;;;;;;;;;;;;;;5081386;28;810;-63
2022/07/04 12:21:59;;;;;;;;;;;;;;;;;;5082516;28;972;-63
2022/07/04 12:24:26;;;;;;;;;;;;;;;;;;5082287;28;854;-63
2022/07/04 12:26:51;;;;;;;;;;;;;;;;;;5082113;28;1954;-63
2022/07/04 12:29:20;;;;;;;;;;;;;;;;;;5082243;28;1102;-63
2022/07/04 12:31:46;;;;;;;;;;;;;;;;;;5082207;28;818;-63
2022/07/04 12:34:15;;;;;;;;;;;;;;;;;;5082438;28;929;-63
2022/07/04 12:36:58;;;;;;;;;;;;;;;;;;5081815;28;1290;-63
2022/07/04 12:39:33;;;;;;;;;;;;;;;;;;5082274;28;900;-63
2022/07/04 12:42:06;;;;;;;;;;;;;;;;;;5081805;28;1035;-63
2022/07/04 12:44:31;;;;;;;;;;;;;;;;;;5082166;28;826;-64
2022/07/04 12:46:57;;;;;;;;;;;;;;;;;;5081430;28;1973;-63
2022/07/04 12:49:22;;;;;;;;;;;;;;;;;;5082018;28;818;-63
2022/07/04 12:51:47;;;;;;;;;;;;;;;;;;5081845;28;794;-63
2022/07/04 12:54:12;;;;;;;;;;;;;;;;;;5081970;28;878;-63
2022/07/04 12:56:37;;;;;;;;;;;;;;;;;;5081216;28;1175;-63
2022/07/04 12:59:06;;;;;;;;;;;;;;;;;;5081910;28;786;-63
2022/07/04 13:01:32;;;;;;;;;;;;;;;;;;5081771;28;984;-63
2022/07/04 13:03:58;;;;;;;;;;;;;;;;;;5081937;28;847;-63
2022/07/04 13:06:23;;;;;;;;;;;;;;;;;;5080145;28;1898;-63
2022/07/04 13:08:48;;;;;;;;;;;;;;;;;;5081551;28;746;-63
2022/07/04 13:13:57;;;;;;;;;;;;;;;;;;5081401;28;680;-63
2022/07/04 13:16:23;;;;;;;;;;;;;;;;;;5081332;28;1263;-63
2022/07/04 13:18:48;;;;;;;;;;;;;;;;;;5081475;28;924;-63
2022/07/04 13:21:13;;;;;;;;;;;;;;;;;;5081475;28;845;-63
2022/07/04 13:23:38;;;;;;;;;;;;;;;;;;5081145;28;981;-63
2022/07/04 13:26:03;;;;;;;;;;;;;;;;;;5081327;28;1898;-63
2022/07/04 13:28:29;;;;;;;;;;;;;;;;;;5080640;28;798;-63
2022/07/04 13:30:54;;;;;;;;;;;;;;;;;;5081370;28;945;-63
2022/07/04 13:33:19;;;;;;;;;;;;;;;;;;5081305;28;771;-63
2022/07/04 13:35:44;;;;;;;;;;;;;;;;;;5081313;28;953;-63
2022/07/04 13:38:09;;;;;;;;;;;;;;;;;;5081019;28;1290;-63
2022/07/04 13:40:35;;;;;;;;;;;;;;;;;;5081053;28;798;-63
2022/07/04 13:43:00;;;;;;;;;;;;;;;;;;5081352;28;925;-63
2022/07/04 13:45:26;;;;;;;;;;;;;;;;;;5081001;28;1969;-63
2022/07/04 13:47:51;;;;;;;;;;;;;;;;;;5081186;28;1208;-63
2022/07/04 13:50:16;;;;;;;;;;;;;;;;;;5081059;28;794;-63
2022/07/04 13:52:41;;;;;;;;;;;;;;;;;;5081266;28;862;-63
2022/07/04 13:55:07;;;;;;;;;;;;;;;;;;5080891;28;1032;-64
2022/07/04 13:57:32;;;;;;;;;;;;;;;;;;5080855;28;1266;-63
2022/07/04 13:59:57;;;;;;;;;;;;;;;;;;5080434;28;976;-63
2022/07/04 14:02:23;;;;;;;;;;;;;;;;;;5081023;28;822;-64
2022/07/04 14:04:48;;;;;;;;;;;;;;;;;;5080994;28;865;-63
2022/07/04 14:07:13;;;;;;;;;;;;;;;;;;5080371;28;1971;-63
2022/07/04 14:09:38;;;;;;;;;;;;;;;;;;5080864;28;889;-63
2022/07/04 14:12:04;;;;;;;;;;;;;;;;;;5080681;28;885;-63
2022/07/04 14:14:29;;;;;;;;;;;;;;;;;;5080989;28;1047;-63
2022/07/04 14:16:54;;;;;;;;;;;;;;;;;;5080397;28;1176;-64
2022/07/04 14:19:19;;;;;;;;;;;;;;;;;;5080999;28;786;-63
2022/07/04 14:21:44;;;;;;;;;;;;;;;;;;5080752;28;806;-64
2022/07/04 14:24:10;;;;;;;;;;;;;;;;;;5080697;28;1031;-63
2022/07/04 14:26:35;;;;;;;;;;;;;;;;;;5078792;28;1897;-63
2022/07/04 14:29:00;;;;;;;;;;;;;;;;;;5080984;28;751;-64
2022/07/04 14:31:25;;;;;;;;;;;;;;;;;;5080702;28;791;-63
2022/07/04 14:33:50;;;;;;;;;;;;;;;;;;5080228;28;921;-64
2022/07/04 14:36:16;;;;;;;;;;;;;;;;;;5080376;28;1188;-64
2022/07/04 14:38:41;;;;;;;;;;;;;;;;;;5080344;28;838;-63
2022/07/04 14:41:09;;;;;;;;;;;;;;;;;;5081155;28;981;-63
2022/07/04 14:43:38;;;;;;;;;;;;;;;;;;5084010;28;925;-63
2022/07/04 14:46:03;;;;;;;;;;;;;;;;;;5083821;28;1902;-63
2022/07/04 14:48:29;;;;;;;;;;;;;;;;;;5083605;28;928;-63
2022/07/04 14:50:54;;;;;;;;;;;;;;;;;;5084178;28;1027;-64
2022/07/04 14:53:20;;;;;;;;;;;;;;;;;;5084043;28;869;-63
2022/07/04 14:55:46;;;;;;;;;;;;;;;;;;5083989;28;853;-63
2022/07/04 14:58:13;;;;;;;;;;;;;;;;;;5083513;28;1263;-63
2022/07/04 15:00:38;;;;;;;;;;;;;;;;;;5083746;28;857;-63
2022/07/04 15:03:03;;;;;;;;;;;;;;;;;;5083827;28;853;-64
2022/07/04 15:05:28;;;;;;;;;;;;;;;;;;5083381;28;1963;-63
2022/07/04 15:07:55;;;;;;;;;;;;;;;;;;5083546;28;1188;-64
2022/07/04 15:10:20;;;;;;;;;;;;;;;;;;5083537;28;825;-64
2022/07/04 15:12:46;;;;;;;;;;;;;;;;;;5083684;28;873;-63
2022/07/04 15:15:11;;;;;;;;;;;;;;;;;;5083341;28;838;-63
2022/07/04 15:17:37;;;;;;;;;;;;;;;;;;5083157;28;1173;-64
2022/07/04 15:25:29;;;;;;;;;;;;;;;;;;5083081;28;1889;-64
2022/07/04 15:27:54;;;;;;;;;;;;;;;;;;5083122;28;1270;-64
2022/07/04 15:30:20;;;;;;;;;;;;;;;;;;5083045;28;968;-63
2022/07/04 15:32:45;;;;;;;;;;;;;;;;;;5083298;28;870;-63
2022/07/04 15:35:10;;;;;;;;;;;;;;;;;;5083104;28;928;-64
2022/07/04 15:37:35;;;;;;;;;;;;;;;;;;5082871;28;1302;-63
2022/07/04 15:40:00;;;;;;;;;;;;;;;;;;5083141;28;1027;-63
2022/07/04 15:42:25;;;;;;;;;;;;;;;;;;5082855;28;866;-63
2022/07/04 15:44:51;;;;;;;;;;;;;;;;;;5083164;28;883;-63
2022/07/04 15:47:17;;;;;;;;;;;;;;;;;;5082450;28;1979;-63
2022/07/04 15:49:42;;;;;;;;;;;;;;;;;;5083050;28;901;-63
2022/07/04 15:52:08;;;;;;;;;;;;;;;;;;5082612;28;830;-63
2022/07/04 15:54:33;;;;;;;;;;;;;;;;;;5082930;28;822;-64
2022/07/04 15:56:59;;;;;;;;;;;;;;;;;;5082784;28;1266;-64
2022/07/04 15:59:24;;;;;;;;;;;;;;;;;;5083002;28;802;-64
2022/07/04 16:01:50;;;;;;;;;;;;;;;;;;5082557;28;968;-64
2022/07/04 16:04:15;;;;;;;;;;;;;;;;;;5082875;28;815;-64
2022/07/04 16:06:40;;;;;;;;;;;;;;;;;;5082342;28;1962;-64
2022/07/04 16:09:06;;;;;;;;;;;;;;;;;;5082488;28;854;-64
2022/07/04 16:11:31;;;;;;;;;;;;;;;;;;5082534;28;952;-64
2022/07/04 16:13:56;;;;;;;;;;;;;;;;;;5081134;28;944;-64
2022/07/04 16:16:22;;;;;;;;;;;;;;;;;;5081081;28;1203;-64
2022/07/04 16:18:47;;;;;;;;;;;;;;;;;;5082596;28;802;-64
2022/07/04 16:21:13;;;;;;;;;;;;;;;;;;5082260;28;910;-64
2022/07/04 16:23:38;;;;;;;;;;;;;;;;;;5082468;28;790;-64
2022/07/04 16:26:03;;;;;;;;;;;;;;;;;;5082222;28;1963;-64
2022/07/04 16:28:28;;;;;;;;;;;;;;;;;;5082042;28;1091;-64
2022/07/04 16:30:53;;;;;;;;;;;;;;;;;;5082305;28;925;-64
2022/07/04 16:33:19;;;;;;;;;;;;;;;;;;5082316;28;798;-64
2022/07/04 16:35:46;;;;;;;;;;;;;;;;;;5081947;28;1037;-64
2022/07/04 16:38:11;;;;;;;;;;;;;;;;;;5082045;28;1180;-64
2022/07/04 16:40:36;;;;;;;;;;;;;;;;;;5081851;28;884;-64
2022/07/04 16:43:01;;;;;;;;;;;;;;;;;;5082230;28;944;-64
2022/07/04 16:45:26;;;;;;;;;;;;;;;;;;5082124;28;1959;-64
2022/07/04 16:47:52;;;;;;;;;;;;;;;;;;5081988;28;1282;-64
2022/07/04 16:50:17;;;;;;;;;;;;;;;;;;5081882;28;826;-65
2022/07/04 16:52:42;;;;;;;;;;;;;;;;;;5081863;28;1019;-62
2022/07/04 16:55:07;;;;;;;;;;;;;;;;;;5081783;28;908;-62
2022/07/04 16:57:32;;;;;;;;;;;;;;;;;;5081687;28;1310;-63
2022/07/04 16:59:58;;;;;;;;;;;;;;;;;;5081823;28;857;-63
2022/07/04 17:02:24;;;;;;;;;;;;;;;;;;5081728;28;976;-63
2022/07/04 17:04:50;;;;;;;;;;;;;;;;;;5081235;28;853;-63
2022/07/04 17:07:17;;;;;;;;;;;;;;;;;;5081178;28;1893;-63
2022/07/04 17:09:43;;;;;;;;;;;;;;;;;;5081838;28;904;-63
2022/07/04 17:12:08;;;;;;;;;;;;;;;;;;5081566;28;841;-63
2022/07/04 17:14:33;;;;;;;;;;;;;;;;;;5081763;28;802;-63
2022/07/04 17:16:58;;;;;;;;;;;;;;;;;;5081005;28;1212;-63
2022/07/04 17:19:24;;;;;;;;;;;;;;;;;;5081680;28;936;-63
2022/07/04 17:21:49;;;;;;;;;;;;;;;;;;5080996;28;803;-63
2022/07/04 17:24:14;;;;;;;;;;;;;;;;;;5081750;28;877;-63
2022/07/04 17:26:39;;;;;;;;;;;;;;;;;;5081375;28;1961;-63
2022/07/04 17:29:04;;;;;;;;;;;;;;;;;;5081541;28;874;-63
2022/07/04 17:31:30;;;;;;;;;;;;;;;;;;5081373;28;826;-63